sensor_id;sensor_type;location;lat;lon;timestamp;P1;durP1;ratioP1;P2;durP2;ratioP2
74644;SDS011;63163;55.630;37.594;2024-01-10T00:00:58;3.500000;;;3.200000;;
74644;SDS011;63163;55.630;37.594;2024-01-10T00:01:58;3.200000;;;2.900000;;
74644;SDS011;63163;55.630;37.594;2024-01-10T00:02:58;3.500000;;;2.800000;;
74644;SDS011;63163;55.630;37.594;2024-01-10T00:03:59;3.300000;;;2.900000;;
74644;SDS011;63163;55.630;37.594;2024-01-10T00:04:59;3.400000;;;2.900000;;
74644;SDS011;63163;55.630;37.594;2024-01-10T00:06:00;3.300000;;;3.000000;;
74644;SDS011;63163;55.630;37.594;2024-01-10T00:07:01;3.600000;;;2.800000;;
74644;SDS011;63163;55.630;37.594;2024-01-10T00:08:01;3.600000;;;3.000000;;
74644;SDS011;63163;55.630;37.594;2024-01-10T00:09:02;3.300000;;;2.900000;;
74644;SDS011;63163;55.630;37.594;2024-01-10T00:10:02;3.200000;;;2.900000;;
74644;SDS011;63163;55.630;37.594;2024-01-10T00:11:03;3.800000;;;2.800000;;
74644;SDS011;63163;55.630;37.594;2024-01-10T00:12:04;3.400000;;;3.100000;;
74644;SDS011;63163;55.630;37.594;2024-01-10T00:13:05;3.800000;;;2.800000;;
74644;SDS011;63163;55.630;37.594;2024-01-10T00:14:05;3.700000;;;2.600000;;
74644;SDS011;63163;55.630;37.594;2024-01-10T00:15:06;5.500000;;;5.000000;;
74644;SDS011;63163;55.630;37.594;2024-01-10T00:16:07;3.200000;;;2.600000;;
74644;SDS011;63163;55.630;37.594;2024-01-10T00:17:07;3.600000;;;2.600000;;
74644;SDS011;63163;55.630;37.594;2024-01-10T00:18:08;3.600000;;;2.700000;;
74644;SDS011;63163;55.630;37.594;2024-01-10T00:19:08;3.000000;;;2.600000;;
74644;SDS011;63163;55.630;37.594;2024-01-10T00:20:09;3.000000;;;2.700000;;
74644;SDS011;63163;55.630;37.594;2024-01-10T00:21:09;3.200000;;;2.800000;;
74644;SDS011;63163;55.630;37.594;2024-01-10T00:22:10;2.900000;;;2.600000;;
74644;SDS011;63163;55.630;37.594;2024-01-10T00:23:10;3.000000;;;2.400000;;
74644;SDS011;63163;55.630;37.594;2024-01-10T00:24:11;3.400000;;;2.800000;;
74644;SDS011;63163;55.630;37.594;2024-01-10T00:25:11;2.600000;;;2.400000;;
74644;SDS011;63163;55.630;37.594;2024-01-10T00:26:13;3.000000;;;2.300000;;
74644;SDS011;63163;55.630;37.594;2024-01-10T00:27:13;3.600000;;;2.600000;;
74644;SDS011;63163;55.630;37.594;2024-01-10T00:28:14;3.800000;;;3.500000;;
74644;SDS011;63163;55.630;37.594;2024-01-10T00:29:16;2.800000;;;2.500000;;
74644;SDS011;63163;55.630;37.594;2024-01-10T00:30:17;3.000000;;;2.700000;;
74644;SDS011;63163;55.630;37.594;2024-01-10T00:31:18;4.000000;;;2.600000;;
74644;SDS011;63163;55.630;37.594;2024-01-10T00:32:18;3.500000;;;2.600000;;
74644;SDS011;63163;55.630;37.594;2024-01-10T00:33:19;2.900000;;;2.600000;;
74644;SDS011;63163;55.630;37.594;2024-01-10T00:34:19;2.900000;;;2.500000;;
74644;SDS011;63163;55.630;37.594;2024-01-10T00:35:20;2.700000;;;2.500000;;
74644;SDS011;63163;55.630;37.594;2024-01-10T00:36:20;4.100000;;;3.800000;;
74644;SDS011;63163;55.630;37.594;2024-01-10T00:37:21;3.200000;;;2.900000;;
74644;SDS011;63163;55.630;37.594;2024-01-10T00:38:21;3.300000;;;2.600000;;
74644;SDS011;63163;55.630;37.594;2024-01-10T00:39:22;3.400000;;;2.400000;;
74644;SDS011;63163;55.630;37.594;2024-01-10T00:40:22;2.800000;;;2.500000;;
74644;SDS011;63163;55.630;37.594;2024-01-10T00:41:23;2.600000;;;2.200000;;
74644;SDS011;63163;55.630;37.594;2024-01-10T00:42:24;3.100000;;;2.800000;;
74644;SDS011;63163;55.630;37.594;2024-01-10T00:43:24;2.400000;;;2.200000;;
74644;SDS011;63163;55.630;37.594;2024-01-10T00:44:25;3.000000;;;2.700000;;
74644;SDS011;63163;55.630;37.594;2024-01-10T00:45:25;2.700000;;;2.500000;;
74644;SDS011;63163;55.630;37.594;2024-01-10T00:46:26;2.900000;;;2.600000;;
74644;SDS011;63163;55.630;37.594;2024-01-10T00:47:26;2.900000;;;2.400000;;
74644;SDS011;63163;55.630;37.594;2024-01-10T00:48:27;2.800000;;;2.300000;;
74644;SDS011;63163;55.630;37.594;2024-01-10T00:49:27;7.000000;;;6.600000;;
74644;SDS011;63163;55.630;37.594;2024-01-10T00:50:28;3.500000;;;3.200000;;
74644;SDS011;63163;55.630;37.594;2024-01-10T00:51:28;3.100000;;;2.800000;;
74644;SDS011;63163;55.630;37.594;2024-01-10T00:52:29;4.400000;;;2.400000;;
74644;SDS011;63163;55.630;37.594;2024-01-10T00:53:29;3.300000;;;3.000000;;
74644;SDS011;63163;55.630;37.594;2024-01-10T00:54:30;2.500000;;;2.200000;;
74644;SDS011;63163;55.630;37.594;2024-01-10T00:55:30;3.400000;;;2.500000;;
74644;SDS011;63163;55.630;37.594;2024-01-10T00:56:31;2.400000;;;2.200000;;
74644;SDS011;63163;55.630;37.594;2024-01-10T00:57:31;2.600000;;;2.400000;;
74644;SDS011;63163;55.630;37.594;2024-01-10T00:58:32;3.200000;;;2.400000;;
74644;SDS011;63163;55.630;37.594;2024-01-10T00:59:32;2.400000;;;2.100000;;
74644;SDS011;63163;55.630;37.594;2024-01-10T01:00:33;2.300000;;;2.000000;;
74644;SDS011;63163;55.630;37.594;2024-01-10T01:01:33;2.600000;;;2.300000;;
74644;SDS011;63163;55.630;37.594;2024-01-10T01:02:34;2.900000;;;2.500000;;
74644;SDS011;63163;55.630;37.594;2024-01-10T01:03:35;2.500000;;;2.200000;;
74644;SDS011;63163;55.630;37.594;2024-01-10T01:04:36;2.700000;;;2.200000;;
74644;SDS011;63163;55.630;37.594;2024-01-10T01:05:36;3.000000;;;2.700000;;
74644;SDS011;63163;55.630;37.594;2024-01-10T01:06:37;2.600000;;;2.400000;;
74644;SDS011;63163;55.630;37.594;2024-01-10T01:07:38;2.700000;;;2.500000;;
74644;SDS011;63163;55.630;37.594;2024-01-10T01:08:38;2.600000;;;2.300000;;
74644;SDS011;63163;55.630;37.594;2024-01-10T01:09:39;2.900000;;;2.400000;;
74644;SDS011;63163;55.630;37.594;2024-01-10T01:10:39;2.600000;;;2.300000;;
74644;SDS011;63163;55.630;37.594;2024-01-10T01:11:40;2.600000;;;2.400000;;
74644;SDS011;63163;55.630;37.594;2024-01-10T01:12:41;2.300000;;;2.100000;;
74644;SDS011;63163;55.630;37.594;2024-01-10T01:13:41;2.400000;;;2.200000;;
74644;SDS011;63163;55.630;37.594;2024-01-10T01:14:42;2.500000;;;2.100000;;
74644;SDS011;63163;55.630;37.594;2024-01-10T01:15:43;3.900000;;;2.300000;;
74644;SDS011;63163;55.630;37.594;2024-01-10T01:16:43;2.800000;;;2.400000;;
74644;SDS011;63163;55.630;37.594;2024-01-10T01:17:44;2.300000;;;2.100000;;
74644;SDS011;63163;55.630;37.594;2024-01-10T01:18:44;2.600000;;;2.400000;;
74644;SDS011;63163;55.630;37.594;2024-01-10T01:19:45;3.400000;;;3.100000;;
74644;SDS011;63163;55.630;37.594;2024-01-10T01:20:46;2.100000;;;1.900000;;
74644;SDS011;63163;55.630;37.594;2024-01-10T01:21:48;2.500000;;;2.000000;;
74644;SDS011;63163;55.630;37.594;2024-01-10T01:22:49;2.700000;;;2.500000;;
74644;SDS011;63163;55.630;37.594;2024-01-10T01:23:49;2.300000;;;2.100000;;
74644;SDS011;63163;55.630;37.594;2024-01-10T01:24:50;2.800000;;;2.600000;;
74644;SDS011;63163;55.630;37.594;2024-01-10T01:25:50;2.100000;;;1.900000;;
74644;SDS011;63163;55.630;37.594;2024-01-10T01:26:51;2.400000;;;2.200000;;
74644;SDS011;63163;55.630;37.594;2024-01-10T01:27:52;2.300000;;;2.100000;;
74644;SDS011;63163;55.630;37.594;2024-01-10T01:28:53;2.200000;;;2.000000;;
74644;SDS011;63163;55.630;37.594;2024-01-10T01:29:53;2.200000;;;1.900000;;
74644;SDS011;63163;55.630;37.594;2024-01-10T01:30:54;2.300000;;;1.900000;;
74644;SDS011;63163;55.630;37.594;2024-01-10T01:31:54;2.600000;;;1.900000;;
74644;SDS011;63163;55.630;37.594;2024-01-10T01:32:55;2.300000;;;2.100000;;
74644;SDS011;63163;55.630;37.594;2024-01-10T01:33:56;2.100000;;;1.900000;;
74644;SDS011;63163;55.630;37.594;2024-01-10T01:34:56;2.700000;;;2.200000;;
74644;SDS011;63163;55.630;37.594;2024-01-10T01:35:57;2.700000;;;2.200000;;
74644;SDS011;63163;55.630;37.594;2024-01-10T01:36:57;2.300000;;;2.100000;;
74644;SDS011;63163;55.630;37.594;2024-01-10T01:37:58;2.300000;;;2.000000;;
74644;SDS011;63163;55.630;37.594;2024-01-10T01:38:58;2.400000;;;2.200000;;
74644;SDS011;63163;55.630;37.594;2024-01-10T01:39:59;2.500000;;;2.300000;;
74644;SDS011;63163;55.630;37.594;2024-01-10T01:40:59;2.500000;;;2.100000;;
74644;SDS011;63163;55.630;37.594;2024-01-10T01:42:00;2.100000;;;1.900000;;
74644;SDS011;63163;55.630;37.594;2024-01-10T01:43:00;2.200000;;;2.000000;;
74644;SDS011;63163;55.630;37.594;2024-01-10T01:44:01;2.900000;;;2.300000;;
74644;SDS011;63163;55.630;37.594;2024-01-10T01:45:01;2.400000;;;2.200000;;
74644;SDS011;63163;55.630;37.594;2024-01-10T01:46:02;2.400000;;;2.200000;;
74644;SDS011;63163;55.630;37.594;2024-01-10T01:47:03;2.600000;;;2.000000;;
74644;SDS011;63163;55.630;37.594;2024-01-10T01:48:04;2.400000;;;2.200000;;
74644;SDS011;63163;55.630;37.594;2024-01-10T01:49:05;2.300000;;;2.100000;;
74644;SDS011;63163;55.630;37.594;2024-01-10T01:50:07;2.100000;;;1.900000;;
74644;SDS011;63163;55.630;37.594;2024-01-10T01:51:08;2.400000;;;2.200000;;
74644;SDS011;63163;55.630;37.594;2024-01-10T01:52:09;2.500000;;;2.100000;;
74644;SDS011;63163;55.630;37.594;2024-01-10T01:53:10;2.300000;;;2.000000;;
74644;SDS011;63163;55.630;37.594;2024-01-10T01:54:11;2.000000;;;1.800000;;
74644;SDS011;63163;55.630;37.594;2024-01-10T01:55:11;2.400000;;;2.000000;;
74644;SDS011;63163;55.630;37.594;2024-01-10T01:56:12;2.400000;;;1.700000;;
74644;SDS011;63163;55.630;37.594;2024-01-10T01:57:13;2.200000;;;1.900000;;
74644;SDS011;63163;55.630;37.594;2024-01-10T01:58:14;2.200000;;;2.000000;;
74644;SDS011;63163;55.630;37.594;2024-01-10T01:59:15;2.400000;;;2.100000;;
74644;SDS011;63163;55.630;37.594;2024-01-10T02:00:16;2.300000;;;2.100000;;
74644;SDS011;63163;55.630;37.594;2024-01-10T02:01:16;2.300000;;;2.100000;;
74644;SDS011;63163;55.630;37.594;2024-01-10T02:02:17;2.900000;;;1.900000;;
74644;SDS011;63163;55.630;37.594;2024-01-10T02:03:18;2.700000;;;2.500000;;
74644;SDS011;63163;55.630;37.594;2024-01-10T02:04:18;2.000000;;;1.800000;;
74644;SDS011;63163;55.630;37.594;2024-01-10T02:05:20;2.300000;;;2.100000;;
74644;SDS011;63163;55.630;37.594;2024-01-10T02:06:20;2.100000;;;1.900000;;
74644;SDS011;63163;55.630;37.594;2024-01-10T02:07:21;2.500000;;;2.100000;;
74644;SDS011;63163;55.630;37.594;2024-01-10T02:08:22;2.400000;;;2.200000;;
74644;SDS011;63163;55.630;37.594;2024-01-10T02:09:22;2.200000;;;2.000000;;
74644;SDS011;63163;55.630;37.594;2024-01-10T02:10:23;2.200000;;;2.000000;;
74644;SDS011;63163;55.630;37.594;2024-01-10T02:11:23;2.500000;;;2.300000;;
74644;SDS011;63163;55.630;37.594;2024-01-10T02:12:24;2.100000;;;1.900000;;
74644;SDS011;63163;55.630;37.594;2024-01-10T02:13:25;2.100000;;;1.900000;;
74644;SDS011;63163;55.630;37.594;2024-01-10T02:14:26;2.600000;;;2.000000;;
74644;SDS011;63163;55.630;37.594;2024-01-10T02:15:26;2.400000;;;2.200000;;
74644;SDS011;63163;55.630;37.594;2024-01-10T02:16:27;3.100000;;;2.200000;;
74644;SDS011;63163;55.630;37.594;2024-01-10T02:17:28;2.300000;;;2.100000;;
74644;SDS011;63163;55.630;37.594;2024-01-10T02:18:28;2.000000;;;1.800000;;
74644;SDS011;63163;55.630;37.594;2024-01-10T02:19:29;2.100000;;;1.700000;;
74644;SDS011;63163;55.630;37.594;2024-01-10T02:20:31;2.000000;;;1.800000;;
74644;SDS011;63163;55.630;37.594;2024-01-10T02:21:32;1.800000;;;1.700000;;
74644;SDS011;63163;55.630;37.594;2024-01-10T02:22:32;2.300000;;;1.900000;;
74644;SDS011;63163;55.630;37.594;2024-01-10T02:23:33;2.400000;;;2.000000;;
74644;SDS011;63163;55.630;37.594;2024-01-10T02:24:33;2.400000;;;2.200000;;
74644;SDS011;63163;55.630;37.594;2024-01-10T02:25:34;1.800000;;;1.700000;;
74644;SDS011;63163;55.630;37.594;2024-01-10T02:26:34;2.000000;;;1.800000;;
74644;SDS011;63163;55.630;37.594;2024-01-10T02:27:35;1.900000;;;1.600000;;
74644;SDS011;63163;55.630;37.594;2024-01-10T02:28:36;3.100000;;;2.900000;;
74644;SDS011;63163;55.630;37.594;2024-01-10T02:29:36;2.800000;;;2.600000;;
74644;SDS011;63163;55.630;37.594;2024-01-10T02:30:37;2.300000;;;2.100000;;
74644;SDS011;63163;55.630;37.594;2024-01-10T02:31:38;2.100000;;;1.900000;;
74644;SDS011;63163;55.630;37.594;2024-01-10T02:32:38;2.500000;;;2.300000;;
74644;SDS011;63163;55.630;37.594;2024-01-10T02:33:39;2.100000;;;1.900000;;
74644;SDS011;63163;55.630;37.594;2024-01-10T02:34:39;1.900000;;;1.800000;;
74644;SDS011;63163;55.630;37.594;2024-01-10T02:35:40;2.100000;;;1.900000;;
74644;SDS011;63163;55.630;37.594;2024-01-10T02:36:40;1.900000;;;1.700000;;
74644;SDS011;63163;55.630;37.594;2024-01-10T02:37:41;2.000000;;;1.700000;;
74644;SDS011;63163;55.630;37.594;2024-01-10T02:38:41;1.700000;;;1.600000;;
74644;SDS011;63163;55.630;37.594;2024-01-10T02:39:42;2.100000;;;1.900000;;
74644;SDS011;63163;55.630;37.594;2024-01-10T02:40:42;1.800000;;;1.700000;;
74644;SDS011;63163;55.630;37.594;2024-01-10T02:41:42;2.300000;;;1.700000;;
74644;SDS011;63163;55.630;37.594;2024-01-10T02:42:43;3.000000;;;1.800000;;
74644;SDS011;63163;55.630;37.594;2024-01-10T02:43:44;1.900000;;;1.500000;;
74644;SDS011;63163;55.630;37.594;2024-01-10T02:44:44;2.200000;;;1.500000;;
74644;SDS011;63163;55.630;37.594;2024-01-10T02:45:45;2.700000;;;1.700000;;
74644;SDS011;63163;55.630;37.594;2024-01-10T02:46:45;3.000000;;;1.800000;;
74644;SDS011;63163;55.630;37.594;2024-01-10T02:47:46;2.800000;;;2.000000;;
74644;SDS011;63163;55.630;37.594;2024-01-10T02:48:47;2.300000;;;2.000000;;
74644;SDS011;63163;55.630;37.594;2024-01-10T02:49:47;2.200000;;;2.000000;;
74644;SDS011;63163;55.630;37.594;2024-01-10T02:50:48;2.200000;;;2.000000;;
74644;SDS011;63163;55.630;37.594;2024-01-10T02:51:48;2.700000;;;2.000000;;
74644;SDS011;63163;55.630;37.594;2024-01-10T02:52:49;1.800000;;;1.700000;;
74644;SDS011;63163;55.630;37.594;2024-01-10T02:53:49;2.000000;;;1.800000;;
74644;SDS011;63163;55.630;37.594;2024-01-10T02:54:50;1.800000;;;1.700000;;
74644;SDS011;63163;55.630;37.594;2024-01-10T02:55:51;1.900000;;;1.700000;;
74644;SDS011;63163;55.630;37.594;2024-01-10T02:56:51;2.800000;;;1.700000;;
74644;SDS011;63163;55.630;37.594;2024-01-10T02:57:52;2.200000;;;1.600000;;
74644;SDS011;63163;55.630;37.594;2024-01-10T02:58:52;1.900000;;;1.700000;;
74644;SDS011;63163;55.630;37.594;2024-01-10T02:59:53;2.100000;;;1.900000;;
74644;SDS011;63163;55.630;37.594;2024-01-10T03:00:54;1.900000;;;1.800000;;
74644;SDS011;63163;55.630;37.594;2024-01-10T03:01:54;2.400000;;;2.200000;;
74644;SDS011;63163;55.630;37.594;2024-01-10T03:02:55;2.000000;;;1.800000;;
74644;SDS011;63163;55.630;37.594;2024-01-10T03:03:55;2.000000;;;1.800000;;
74644;SDS011;63163;55.630;37.594;2024-01-10T03:04:56;1.800000;;;1.600000;;
74644;SDS011;63163;55.630;37.594;2024-01-10T03:05:56;2.100000;;;1.900000;;
74644;SDS011;63163;55.630;37.594;2024-01-10T03:06:57;2.200000;;;2.000000;;
74644;SDS011;63163;55.630;37.594;2024-01-10T03:07:57;2.200000;;;1.900000;;
74644;SDS011;63163;55.630;37.594;2024-01-10T03:08:58;2.100000;;;1.800000;;
74644;SDS011;63163;55.630;37.594;2024-01-10T03:09:58;2.000000;;;1.800000;;
74644;SDS011;63163;55.630;37.594;2024-01-10T03:10:59;3.400000;;;2.000000;;
74644;SDS011;63163;55.630;37.594;2024-01-10T03:11:59;2.600000;;;1.900000;;
74644;SDS011;63163;55.630;37.594;2024-01-10T03:13:00;2.300000;;;2.100000;;
74644;SDS011;63163;55.630;37.594;2024-01-10T03:14:01;2.600000;;;1.800000;;
74644;SDS011;63163;55.630;37.594;2024-01-10T03:15:02;2.000000;;;1.800000;;
74644;SDS011;63163;55.630;37.594;2024-01-10T03:16:03;2.300000;;;1.900000;;
74644;SDS011;63163;55.630;37.594;2024-01-10T03:17:04;2.100000;;;1.900000;;
74644;SDS011;63163;55.630;37.594;2024-01-10T03:18:04;2.100000;;;1.900000;;
74644;SDS011;63163;55.630;37.594;2024-01-10T03:19:05;2.400000;;;2.100000;;
74644;SDS011;63163;55.630;37.594;2024-01-10T03:20:06;2.000000;;;1.800000;;
74644;SDS011;63163;55.630;37.594;2024-01-10T03:21:08;2.700000;;;2.200000;;
74644;SDS011;63163;55.630;37.594;2024-01-10T03:22:09;3.200000;;;2.100000;;
74644;SDS011;63163;55.630;37.594;2024-01-10T03:23:09;3.200000;;;2.900000;;
74644;SDS011;63163;55.630;37.594;2024-01-10T03:24:10;2.400000;;;2.100000;;
74644;SDS011;63163;55.630;37.594;2024-01-10T03:25:10;2.500000;;;2.000000;;
74644;SDS011;63163;55.630;37.594;2024-01-10T03:26:11;3.100000;;;2.300000;;
74644;SDS011;63163;55.630;37.594;2024-01-10T03:27:11;2.300000;;;2.100000;;
74644;SDS011;63163;55.630;37.594;2024-01-10T03:28:14;2.600000;;;2.400000;;
74644;SDS011;63163;55.630;37.594;2024-01-10T03:29:15;2.200000;;;2.000000;;
74644;SDS011;63163;55.630;37.594;2024-01-10T03:30:16;2.200000;;;2.000000;;
74644;SDS011;63163;55.630;37.594;2024-01-10T03:31:18;4.300000;;;2.200000;;
74644;SDS011;63163;55.630;37.594;2024-01-10T03:32:19;2.700000;;;2.200000;;
74644;SDS011;63163;55.630;37.594;2024-01-10T03:33:19;2.500000;;;1.900000;;
74644;SDS011;63163;55.630;37.594;2024-01-10T03:34:20;2.700000;;;2.100000;;
74644;SDS011;63163;55.630;37.594;2024-01-10T03:35:20;2.700000;;;2.300000;;
74644;SDS011;63163;55.630;37.594;2024-01-10T03:36:21;3.200000;;;2.100000;;
74644;SDS011;63163;55.630;37.594;2024-01-10T03:37:21;2.700000;;;2.200000;;
74644;SDS011;63163;55.630;37.594;2024-01-10T03:38:22;2.700000;;;2.300000;;
74644;SDS011;63163;55.630;37.594;2024-01-10T03:39:22;2.500000;;;2.200000;;
74644;SDS011;63163;55.630;37.594;2024-01-10T03:40:23;3.100000;;;2.400000;;
74644;SDS011;63163;55.630;37.594;2024-01-10T03:41:23;2.400000;;;2.200000;;
74644;SDS011;63163;55.630;37.594;2024-01-10T03:42:24;2.900000;;;2.200000;;
74644;SDS011;63163;55.630;37.594;2024-01-10T03:43:24;2.700000;;;2.400000;;
74644;SDS011;63163;55.630;37.594;2024-01-10T03:44:26;2.700000;;;2.300000;;
74644;SDS011;63163;55.630;37.594;2024-01-10T03:45:26;2.500000;;;2.300000;;
74644;SDS011;63163;55.630;37.594;2024-01-10T03:46:28;2.800000;;;2.500000;;
74644;SDS011;63163;55.630;37.594;2024-01-10T03:47:28;3.200000;;;2.300000;;
74644;SDS011;63163;55.630;37.594;2024-01-10T03:48:29;2.700000;;;2.500000;;
74644;SDS011;63163;55.630;37.594;2024-01-10T03:49:29;3.100000;;;2.500000;;
74644;SDS011;63163;55.630;37.594;2024-01-10T03:50:30;2.600000;;;2.300000;;
74644;SDS011;63163;55.630;37.594;2024-01-10T03:51:30;3.000000;;;2.700000;;
74644;SDS011;63163;55.630;37.594;2024-01-10T03:52:31;3.200000;;;2.600000;;
74644;SDS011;63163;55.630;37.594;2024-01-10T03:53:31;3.200000;;;2.900000;;
74644;SDS011;63163;55.630;37.594;2024-01-10T03:54:32;2.900000;;;2.400000;;
74644;SDS011;63163;55.630;37.594;2024-01-10T03:55:33;3.200000;;;2.500000;;
74644;SDS011;63163;55.630;37.594;2024-01-10T03:56:34;3.900000;;;2.800000;;
74644;SDS011;63163;55.630;37.594;2024-01-10T03:57:34;3.100000;;;2.600000;;
74644;SDS011;63163;55.630;37.594;2024-01-10T03:58:35;3.100000;;;2.800000;;
74644;SDS011;63163;55.630;37.594;2024-01-10T03:59:36;4.200000;;;3.800000;;
74644;SDS011;63163;55.630;37.594;2024-01-10T04:00:36;3.300000;;;3.000000;;
74644;SDS011;63163;55.630;37.594;2024-01-10T04:01:37;4.500000;;;3.500000;;
74644;SDS011;63163;55.630;37.594;2024-01-10T04:02:39;4.500000;;;3.200000;;
74644;SDS011;63163;55.630;37.594;2024-01-10T04:03:40;3.600000;;;3.100000;;
74644;SDS011;63163;55.630;37.594;2024-01-10T04:04:42;4.100000;;;3.700000;;
74644;SDS011;63163;55.630;37.594;2024-01-10T04:05:42;5.000000;;;3.900000;;
74644;SDS011;63163;55.630;37.594;2024-01-10T04:06:43;4.300000;;;3.700000;;
74644;SDS011;63163;55.630;37.594;2024-01-10T04:07:44;4.700000;;;3.700000;;
74644;SDS011;63163;55.630;37.594;2024-01-10T04:08:44;6.600000;;;4.700000;;
74644;SDS011;63163;55.630;37.594;2024-01-10T04:09:45;6.200000;;;4.700000;;
74644;SDS011;63163;55.630;37.594;2024-01-10T04:10:45;7.000000;;;5.300000;;
74644;SDS011;63163;55.630;37.594;2024-01-10T04:11:46;8.900000;;;5.300000;;
74644;SDS011;63163;55.630;37.594;2024-01-10T04:12:46;6.600000;;;5.000000;;
74644;SDS011;63163;55.630;37.594;2024-01-10T04:13:46;7.000000;;;5.600000;;
74644;SDS011;63163;55.630;37.594;2024-01-10T04:14:47;8.100000;;;5.500000;;
74644;SDS011;63163;55.630;37.594;2024-01-10T04:15:48;8.900000;;;6.700000;;
74644;SDS011;63163;55.630;37.594;2024-01-10T04:16:49;8.400000;;;5.700000;;
74644;SDS011;63163;55.630;37.594;2024-01-10T04:17:49;6.900000;;;6.200000;;
74644;SDS011;63163;55.630;37.594;2024-01-10T04:18:50;9.200000;;;6.600000;;
74644;SDS011;63163;55.630;37.594;2024-01-10T04:19:50;8.700000;;;6.300000;;
74644;SDS011;63163;55.630;37.594;2024-01-10T04:20:51;7.400000;;;5.400000;;
74644;SDS011;63163;55.630;37.594;2024-01-10T04:21:52;7.800000;;;5.800000;;
74644;SDS011;63163;55.630;37.594;2024-01-10T04:22:52;8.400000;;;5.800000;;
74644;SDS011;63163;55.630;37.594;2024-01-10T04:23:53;7.700000;;;5.200000;;
74644;SDS011;63163;55.630;37.594;2024-01-10T04:24:55;7.400000;;;4.800000;;
74644;SDS011;63163;55.630;37.594;2024-01-10T04:25:55;7.100000;;;5.800000;;
74644;SDS011;63163;55.630;37.594;2024-01-10T04:26:56;8.100000;;;6.500000;;
74644;SDS011;63163;55.630;37.594;2024-01-10T04:27:56;8.300000;;;5.800000;;
74644;SDS011;63163;55.630;37.594;2024-01-10T04:28:57;7.800000;;;5.900000;;
74644;SDS011;63163;55.630;37.594;2024-01-10T04:29:58;9.200000;;;6.900000;;
74644;SDS011;63163;55.630;37.594;2024-01-10T04:30:58;9.700000;;;6.600000;;
74644;SDS011;63163;55.630;37.594;2024-01-10T04:31:59;9.500000;;;6.400000;;
74644;SDS011;63163;55.630;37.594;2024-01-10T04:32:59;8.200000;;;5.400000;;
74644;SDS011;63163;55.630;37.594;2024-01-10T04:34:00;9.900000;;;6.400000;;
74644;SDS011;63163;55.630;37.594;2024-01-10T04:35:00;8.500000;;;6.300000;;
74644;SDS011;63163;55.630;37.594;2024-01-10T04:36:01;8.200000;;;6.100000;;
74644;SDS011;63163;55.630;37.594;2024-01-10T04:37:02;9.400000;;;6.900000;;
74644;SDS011;63163;55.630;37.594;2024-01-10T04:38:02;11.100000;;;6.500000;;
74644;SDS011;63163;55.630;37.594;2024-01-10T04:39:03;7.000000;;;5.800000;;
74644;SDS011;63163;55.630;37.594;2024-01-10T04:40:05;9.500000;;;6.500000;;
74644;SDS011;63163;55.630;37.594;2024-01-10T04:41:06;8.700000;;;6.700000;;
74644;SDS011;63163;55.630;37.594;2024-01-10T04:42:06;7.500000;;;5.400000;;
74644;SDS011;63163;55.630;37.594;2024-01-10T04:43:07;9.100000;;;6.400000;;
74644;SDS011;63163;55.630;37.594;2024-01-10T04:44:07;9.700000;;;6.100000;;
74644;SDS011;63163;55.630;37.594;2024-01-10T04:45:08;7.100000;;;5.300000;;
74644;SDS011;63163;55.630;37.594;2024-01-10T04:46:09;8.400000;;;6.000000;;
74644;SDS011;63163;55.630;37.594;2024-01-10T04:47:10;8.700000;;;7.800000;;
74644;SDS011;63163;55.630;37.594;2024-01-10T04:48:11;9.100000;;;6.500000;;
74644;SDS011;63163;55.630;37.594;2024-01-10T04:49:11;9.000000;;;6.000000;;
74644;SDS011;63163;55.630;37.594;2024-01-10T04:50:12;9.200000;;;6.100000;;
74644;SDS011;63163;55.630;37.594;2024-01-10T04:51:12;9.400000;;;6.900000;;
74644;SDS011;63163;55.630;37.594;2024-01-10T04:52:15;9.300000;;;6.000000;;
74644;SDS011;63163;55.630;37.594;2024-01-10T04:53:15;9.700000;;;6.900000;;
74644;SDS011;63163;55.630;37.594;2024-01-10T04:54:16;8.700000;;;6.100000;;
74644;SDS011;63163;55.630;37.594;2024-01-10T04:55:16;10.000000;;;7.200000;;
74644;SDS011;63163;55.630;37.594;2024-01-10T04:56:17;8.700000;;;6.200000;;
74644;SDS011;63163;55.630;37.594;2024-01-10T04:57:17;8.800000;;;6.600000;;
74644;SDS011;63163;55.630;37.594;2024-01-10T04:58:18;9.700000;;;6.600000;;
74644;SDS011;63163;55.630;37.594;2024-01-10T04:59:19;8.600000;;;6.300000;;
74644;SDS011;63163;55.630;37.594;2024-01-10T05:00:19;10.400000;;;7.200000;;
74644;SDS011;63163;55.630;37.594;2024-01-10T05:01:20;9.500000;;;6.400000;;
74644;SDS011;63163;55.630;37.594;2024-01-10T05:02:20;8.500000;;;5.700000;;
74644;SDS011;63163;55.630;37.594;2024-01-10T05:03:21;9.400000;;;7.300000;;
74644;SDS011;63163;55.630;37.594;2024-01-10T05:04:21;10.900000;;;7.500000;;
74644;SDS011;63163;55.630;37.594;2024-01-10T05:05:22;10.600000;;;7.000000;;
74644;SDS011;63163;55.630;37.594;2024-01-10T05:06:24;8.600000;;;6.400000;;
74644;SDS011;63163;55.630;37.594;2024-01-10T05:07:24;9.200000;;;7.100000;;
74644;SDS011;63163;55.630;37.594;2024-01-10T05:08:25;9.800000;;;6.800000;;
74644;SDS011;63163;55.630;37.594;2024-01-10T05:09:26;9.000000;;;6.500000;;
74644;SDS011;63163;55.630;37.594;2024-01-10T05:10:27;9.100000;;;6.200000;;
74644;SDS011;63163;55.630;37.594;2024-01-10T05:11:27;10.900000;;;7.200000;;
74644;SDS011;63163;55.630;37.594;2024-01-10T05:12:28;9.400000;;;7.300000;;
74644;SDS011;63163;55.630;37.594;2024-01-10T05:13:29;10.300000;;;7.600000;;
74644;SDS011;63163;55.630;37.594;2024-01-10T05:14:29;10.100000;;;7.800000;;
74644;SDS011;63163;55.630;37.594;2024-01-10T05:15:30;10.200000;;;6.900000;;
74644;SDS011;63163;55.630;37.594;2024-01-10T05:16:30;9.900000;;;6.900000;;
74644;SDS011;63163;55.630;37.594;2024-01-10T05:17:31;10.200000;;;6.800000;;
74644;SDS011;63163;55.630;37.594;2024-01-10T05:18:32;9.700000;;;6.200000;;
74644;SDS011;63163;55.630;37.594;2024-01-10T05:19:33;11.500000;;;7.000000;;
74644;SDS011;63163;55.630;37.594;2024-01-10T05:20:33;9.500000;;;6.700000;;
74644;SDS011;63163;55.630;37.594;2024-01-10T05:21:33;9.500000;;;7.100000;;